Terminal Aerodrome Forecast
Issued by NWS

Home | Current Version | Previous Version | Text Only | Print | Product List | Glossary On
Versions: 1 2 3 4 5 6 7 8 9 10 11 12 13 14 15
000
FTUS42 KTBW 181734
TAFPGD
TAF
KPGD 181734Z 1818/1918 12005KT P6SM FEW035
     FM190200 VRB04KT P6SM FEW050
     FM190900 VRB03KT 4SM BR SCT003
     FM191400 12010KT P6SM FEW030=

USA.gov is the U.S. government's official web portal to all federal, state and local government web resources and services.